sensor_id;sensor_type;location;lat;lon;timestamp;pressure;altitude;pressure_sealevel;temperature;humidity
64862;BME280;62652;42.274;-71.436;2022-10-22T00:00:00;101360.0;;;14.722222222222221;56.4
64862;BME280;62652;42.274;-71.436;2022-10-22T00:01:00;101360.0;;;14.61111111111111;56.9
64862;BME280;62652;42.274;-71.436;2022-10-22T00:02:00;101360.0;;;14.777777777777779;56.4
64862;BME280;62652;42.274;-71.436;2022-10-22T00:03:00;101360.0;;;14.38888888888889;57.5
64862;BME280;62652;42.274;-71.436;2022-10-22T00:04:00;101360.0;;;14.5;57.5
64862;BME280;62652;42.274;-71.436;2022-10-22T00:05:00;101360.0;;;14.722222222222221;56.9
64862;BME280;62652;42.274;-71.436;2022-10-22T00:06:00;101360.0;;;14.000000000000002;59.5
64862;BME280;62652;42.274;-71.436;2022-10-22T00:07:00;101370.0;;;14.000000000000002;59.9
64862;BME280;62652;42.274;-71.436;2022-10-22T00:08:00;101360.0;;;13.722222222222223;61.0
64862;BME280;62652;42.274;-71.436;2022-10-22T00:09:00;101370.0;;;13.61111111111111;61.8
64862;BME280;62652;42.274;-71.436;2022-10-22T00:10:01;101370.0;;;13.38888888888889;62.4
64862;BME280;62652;42.274;-71.436;2022-10-22T00:11:07;101360.0;;;13.61111111111111;62.6
64862;BME280;62652;42.274;-71.436;2022-10-22T00:12:00;101360.0;;;13.61111111111111;62.6
64862;BME280;62652;42.274;-71.436;2022-10-22T00:13:00;101370.0;;;13.277777777777779;63.4
64862;BME280;62652;42.274;-71.436;2022-10-22T00:14:00;101370.0;;;13.38888888888889;63.3
64862;BME280;62652;42.274;-71.436;2022-10-22T00:15:00;101370.0;;;13.61111111111111;63.1
64862;BME280;62652;42.274;-71.436;2022-10-22T00:16:00;101370.0;;;13.722222222222223;62.5
64862;BME280;62652;42.274;-71.436;2022-10-22T00:17:00;101370.0;;;14.11111111111111;61.3
64862;BME280;62652;42.274;-71.436;2022-10-22T00:18:00;101370.0;;;14.11111111111111;61.2
64862;BME280;62652;42.274;-71.436;2022-10-22T00:19:00;101380.0;;;14.11111111111111;61.1
64862;BME280;62652;42.274;-71.436;2022-10-22T00:20:00;101380.0;;;14.222222222222221;61.5
64862;BME280;62652;42.274;-71.436;2022-10-22T00:21:01;101380.0;;;14.277777777777779;60.7
64862;BME280;62652;42.274;-71.436;2022-10-22T00:22:00;101380.0;;;13.61111111111111;63.5
64862;BME280;62652;42.274;-71.436;2022-10-22T00:23:00;101380.0;;;13.777777777777777;62.7
64862;BME280;62652;42.274;-71.436;2022-10-22T00:24:01;101380.0;;;14.000000000000002;62.5
64862;BME280;62652;42.274;-71.436;2022-10-22T00:25:00;101380.0;;;14.11111111111111;62.2
64862;BME280;62652;42.274;-71.436;2022-10-22T00:26:00;101380.0;;;14.222222222222221;62.0
64862;BME280;62652;42.274;-71.436;2022-10-22T00:27:01;101380.0;;;14.277777777777779;61.6
64862;BME280;62652;42.274;-71.436;2022-10-22T00:28:01;101380.0;;;14.000000000000002;62.2
64862;BME280;62652;42.274;-71.436;2022-10-22T00:29:00;101380.0;;;14.11111111111111;62.6
64862;BME280;62652;42.274;-71.436;2022-10-22T00:30:00;101380.0;;;13.88888888888889;63.4
64862;BME280;62652;42.274;-71.436;2022-10-22T00:31:01;101380.0;;;13.61111111111111;64.8
64862;BME280;62652;42.274;-71.436;2022-10-22T00:32:01;101380.0;;;13.722222222222223;65.0
64862;BME280;62652;42.274;-71.436;2022-10-22T00:33:00;101380.0;;;13.722222222222223;65.0
64862;BME280;62652;42.274;-71.436;2022-10-22T00:34:01;101380.0;;;13.777777777777777;64.6
64862;BME280;62652;42.274;-71.436;2022-10-22T00:35:00;101380.0;;;13.777777777777777;64.9
64862;BME280;62652;42.274;-71.436;2022-10-22T00:36:00;101380.0;;;13.722222222222223;65.2
64862;BME280;62652;42.274;-71.436;2022-10-22T00:37:00;101380.0;;;14.222222222222221;63.6
64862;BME280;62652;42.274;-71.436;2022-10-22T00:38:00;101380.0;;;14.000000000000002;64.8
64862;BME280;62652;42.274;-71.436;2022-10-22T00:39:00;101380.0;;;14.38888888888889;63.4
64862;BME280;62652;42.274;-71.436;2022-10-22T00:40:00;101380.0;;;14.222222222222221;63.2
64862;BME280;62652;42.274;-71.436;2022-10-22T00:41:00;101390.0;;;14.222222222222221;63.5
64862;BME280;62652;42.274;-71.436;2022-10-22T00:42:00;101380.0;;;14.277777777777779;63.3
64862;BME280;62652;42.274;-71.436;2022-10-22T00:43:00;101390.0;;;13.88888888888889;65.1
64862;BME280;62652;42.274;-71.436;2022-10-22T00:44:02;101390.0;;;13.88888888888889;65.4
64862;BME280;62652;42.274;-71.436;2022-10-22T00:45:06;101390.0;;;14.222222222222221;64.5
64862;BME280;62652;42.274;-71.436;2022-10-22T00:46:00;101390.0;;;14.5;63.3
64862;BME280;62652;42.274;-71.436;2022-10-22T00:47:00;101400.0;;;14.38888888888889;63.4
64862;BME280;62652;42.274;-71.436;2022-10-22T00:48:03;101400.0;;;14.000000000000002;65.1
64862;BME280;62652;42.274;-71.436;2022-10-22T00:49:02;101400.0;;;13.88888888888889;65.7
64862;BME280;62652;42.274;-71.436;2022-10-22T00:50:01;101410.0;;;13.777777777777777;66.3
64862;BME280;62652;42.274;-71.436;2022-10-22T00:51:03;101400.0;;;14.11111111111111;65.4
64862;BME280;62652;42.274;-71.436;2022-10-22T00:52:00;101410.0;;;14.5;63.7
64862;BME280;62652;42.274;-71.436;2022-10-22T00:53:02;101410.0;;;14.277777777777779;64.3
64862;BME280;62652;42.274;-71.436;2022-10-22T00:54:04;101410.0;;;14.277777777777779;64.4
64862;BME280;62652;42.274;-71.436;2022-10-22T00:55:00;101410.0;;;14.38888888888889;64.6
64862;BME280;62652;42.274;-71.436;2022-10-22T00:56:01;101410.0;;;14.277777777777779;64.7
64862;BME280;62652;42.274;-71.436;2022-10-22T00:57:00;101410.0;;;13.777777777777777;66.4
64862;BME280;62652;42.274;-71.436;2022-10-22T00:58:01;101410.0;;;13.722222222222223;66.7
64862;BME280;62652;42.274;-71.436;2022-10-22T00:59:01;101410.0;;;13.777777777777777;66.8
64862;BME280;62652;42.274;-71.436;2022-10-22T01:00:00;101410.0;;;14.000000000000002;66.0
64862;BME280;62652;42.274;-71.436;2022-10-22T01:01:01;101410.0;;;14.38888888888889;64.8
64862;BME280;62652;42.274;-71.436;2022-10-22T01:02:00;101410.0;;;14.38888888888889;64.6
64862;BME280;62652;42.274;-71.436;2022-10-22T01:03:00;101410.0;;;14.722222222222221;63.2
64862;BME280;62652;42.274;-71.436;2022-10-22T01:04:00;101410.0;;;14.61111111111111;63.8
64862;BME280;62652;42.274;-71.436;2022-10-22T01:05:01;101410.0;;;14.61111111111111;63.3
64862;BME280;62652;42.274;-71.436;2022-10-22T01:06:02;101410.0;;;14.722222222222221;63.0
64862;BME280;62652;42.274;-71.436;2022-10-22T01:07:00;101410.0;;;14.88888888888889;62.2
64862;BME280;62652;42.274;-71.436;2022-10-22T01:08:00;101410.0;;;14.88888888888889;62.1
64862;BME280;62652;42.274;-71.436;2022-10-22T01:09:08;101410.0;;;14.88888888888889;62.1
64862;BME280;62652;42.274;-71.436;2022-10-22T01:10:04;101410.0;;;14.88888888888889;62.1
64862;BME280;62652;42.274;-71.436;2022-10-22T01:11:07;101410.0;;;15.0;61.8
64862;BME280;62652;42.274;-71.436;2022-10-22T01:12:06;101410.0;;;15.11111111111111;61.3
64862;BME280;62652;42.274;-71.436;2022-10-22T01:13:05;101410.0;;;15.0;61.6
64862;BME280;62652;42.274;-71.436;2022-10-22T01:14:11;101410.0;;;14.777777777777779;63.2
64862;BME280;62652;42.274;-71.436;2022-10-22T01:15:06;101410.0;;;14.777777777777779;63.2
64862;BME280;62652;42.274;-71.436;2022-10-22T01:16:09;101420.0;;;14.5;64.3
64862;BME280;62652;42.274;-71.436;2022-10-22T01:17:05;101420.0;;;14.5;64.3
64862;BME280;62652;42.274;-71.436;2022-10-22T01:18:05;101420.0;;;14.61111111111111;63.9
64862;BME280;62652;42.274;-71.436;2022-10-22T01:19:13;101420.0;;;14.777777777777779;63.3
64862;BME280;62652;42.274;-71.436;2022-10-22T01:20:07;101420.0;;;14.777777777777779;63.3
64862;BME280;62652;42.274;-71.436;2022-10-22T01:21:08;101420.0;;;14.777777777777779;62.9
64862;BME280;62652;42.274;-71.436;2022-10-22T01:22:05;101420.0;;;14.777777777777779;62.9
64862;BME280;62652;42.274;-71.436;2022-10-22T01:23:12;101420.0;;;14.38888888888889;64.5
64862;BME280;62652;42.274;-71.436;2022-10-22T01:24:16;101420.0;;;14.777777777777779;63.5
64862;BME280;62652;42.274;-71.436;2022-10-22T01:25:05;101420.0;;;14.777777777777779;63.5
64862;BME280;62652;42.274;-71.436;2022-10-22T01:26:05;101420.0;;;14.722222222222221;63.6
64862;BME280;62652;42.274;-71.436;2022-10-22T01:27:15;101430.0;;;14.61111111111111;64.4
64862;BME280;62652;42.274;-71.436;2022-10-22T01:28:07;101430.0;;;14.61111111111111;64.4
64862;BME280;62652;42.274;-71.436;2022-10-22T01:29:03;101430.0;;;14.11111111111111;66.5
64862;BME280;62652;42.274;-71.436;2022-10-22T01:30:02;101430.0;;;14.5;65.0
64862;BME280;62652;42.274;-71.436;2022-10-22T01:31:02;101430.0;;;14.722222222222221;64.0
64862;BME280;62652;42.274;-71.436;2022-10-22T01:32:04;101430.0;;;14.61111111111111;64.5
64862;BME280;62652;42.274;-71.436;2022-10-22T01:33:03;101430.0;;;14.38888888888889;65.4
64862;BME280;62652;42.274;-71.436;2022-10-22T01:34:02;101430.0;;;14.38888888888889;65.3
64862;BME280;62652;42.274;-71.436;2022-10-22T01:35:06;101430.0;;;14.222222222222221;65.6
64862;BME280;62652;42.274;-71.436;2022-10-22T01:36:02;101430.0;;;14.222222222222221;66.5
64862;BME280;62652;42.274;-71.436;2022-10-22T01:37:01;101430.0;;;14.000000000000002;67.0
64862;BME280;62652;42.274;-71.436;2022-10-22T01:38:04;101440.0;;;14.277777777777779;66.3
64862;BME280;62652;42.274;-71.436;2022-10-22T01:39:01;101430.0;;;14.38888888888889;65.6
64862;BME280;62652;42.274;-71.436;2022-10-22T01:40:01;101440.0;;;14.277777777777779;66.1
64862;BME280;62652;42.274;-71.436;2022-10-22T01:41:01;101440.0;;;14.38888888888889;65.3
64862;BME280;62652;42.274;-71.436;2022-10-22T01:42:00;101440.0;;;14.38888888888889;65.7
64862;BME280;62652;42.274;-71.436;2022-10-22T01:43:02;101440.0;;;14.000000000000002;67.1
64862;BME280;62652;42.274;-71.436;2022-10-22T01:44:00;101440.0;;;14.222222222222221;66.5
64862;BME280;62652;42.274;-71.436;2022-10-22T01:45:00;101440.0;;;14.222222222222221;66.2
64862;BME280;62652;42.274;-71.436;2022-10-22T01:46:03;101440.0;;;13.88888888888889;67.4
64862;BME280;62652;42.274;-71.436;2022-10-22T01:47:13;101450.0;;;13.499999999999998;69.5
64862;BME280;62652;42.274;-71.436;2022-10-22T01:48:08;101450.0;;;13.499999999999998;69.5
64862;BME280;62652;42.274;-71.436;2022-10-22T01:49:12;101450.0;;;12.388888888888888;75.0
64862;BME280;62652;42.274;-71.436;2022-10-22T01:51:14;101450.0;;;13.277777777777779;72.2
64862;BME280;62652;42.274;-71.436;2022-10-22T01:52:06;101450.0;;;13.277777777777779;72.2
64862;BME280;62652;42.274;-71.436;2022-10-22T01:53:16;101460.0;;;13.11111111111111;72.1
64862;BME280;62652;42.274;-71.436;2022-10-22T01:54:04;101460.0;;;13.11111111111111;72.1
64862;BME280;62652;42.274;-71.436;2022-10-22T01:55:08;101460.0;;;12.722222222222221;75.0
64862;BME280;62652;42.274;-71.436;2022-10-22T01:56:12;101460.0;;;12.777777777777779;74.6
64862;BME280;62652;42.274;-71.436;2022-10-22T01:57:07;101460.0;;;13.38888888888889;72.2
64862;BME280;62652;42.274;-71.436;2022-10-22T01:58:08;101460.0;;;13.777777777777777;70.2
64862;BME280;62652;42.274;-71.436;2022-10-22T01:59:05;101460.0;;;13.777777777777777;70.2
64862;BME280;62652;42.274;-71.436;2022-10-22T02:00:04;101460.0;;;13.88888888888889;69.3
64862;BME280;62652;42.274;-71.436;2022-10-22T02:01:06;101470.0;;;14.11111111111111;68.4
64862;BME280;62652;42.274;-71.436;2022-10-22T02:02:05;101460.0;;;14.222222222222221;67.5
64862;BME280;62652;42.274;-71.436;2022-10-22T02:03:06;101470.0;;;14.38888888888889;66.5
64862;BME280;62652;42.274;-71.436;2022-10-22T02:04:04;101470.0;;;14.61111111111111;65.9
64862;BME280;62652;42.274;-71.436;2022-10-22T02:05:04;101470.0;;;14.61111111111111;65.7
64862;BME280;62652;42.274;-71.436;2022-10-22T02:06:04;101470.0;;;14.11111111111111;66.8
64862;BME280;62652;42.274;-71.436;2022-10-22T02:07:04;101470.0;;;13.88888888888889;68.4
64862;BME280;62652;42.274;-71.436;2022-10-22T02:08:05;101480.0;;;14.11111111111111;68.0
64862;BME280;62652;42.274;-71.436;2022-10-22T02:09:01;101480.0;;;14.222222222222221;67.3
64862;BME280;62652;42.274;-71.436;2022-10-22T02:10:01;101470.0;;;14.277777777777779;66.9
64862;BME280;62652;42.274;-71.436;2022-10-22T02:11:01;101480.0;;;14.38888888888889;66.6
64862;BME280;62652;42.274;-71.436;2022-10-22T02:12:04;101480.0;;;14.5;66.1
64862;BME280;62652;42.274;-71.436;2022-10-22T02:13:02;101480.0;;;14.5;65.8
64862;BME280;62652;42.274;-71.436;2022-10-22T02:14:02;101480.0;;;14.5;65.6
64862;BME280;62652;42.274;-71.436;2022-10-22T02:15:02;101480.0;;;14.11111111111111;66.4
64862;BME280;62652;42.274;-71.436;2022-10-22T02:16:02;101480.0;;;14.277777777777779;65.9
64862;BME280;62652;42.274;-71.436;2022-10-22T02:17:00;101480.0;;;14.38888888888889;65.7
64862;BME280;62652;42.274;-71.436;2022-10-22T02:18:01;101490.0;;;14.5;65.5
64862;BME280;62652;42.274;-71.436;2022-10-22T02:19:04;101490.0;;;14.38888888888889;65.6
64862;BME280;62652;42.274;-71.436;2022-10-22T02:20:03;101490.0;;;14.277777777777779;65.8
64862;BME280;62652;42.274;-71.436;2022-10-22T02:21:00;101490.0;;;13.88888888888889;67.5
64862;BME280;62652;42.274;-71.436;2022-10-22T02:22:00;101490.0;;;13.722222222222223;68.1
64862;BME280;62652;42.274;-71.436;2022-10-22T02:23:00;101490.0;;;13.61111111111111;68.6
64862;BME280;62652;42.274;-71.436;2022-10-22T02:24:00;101490.0;;;13.38888888888889;69.9
64862;BME280;62652;42.274;-71.436;2022-10-22T02:25:00;101500.0;;;13.277777777777779;69.8
64862;BME280;62652;42.274;-71.436;2022-10-22T02:26:04;101500.0;;;13.222222222222221;71.0
64862;BME280;62652;42.274;-71.436;2022-10-22T02:27:06;101490.0;;;13.38888888888889;70.0
64862;BME280;62652;42.274;-71.436;2022-10-22T02:28:07;101500.0;;;13.277777777777779;70.2
64862;BME280;62652;42.274;-71.436;2022-10-22T02:29:05;101490.0;;;12.888888888888891;72.1
64862;BME280;62652;42.274;-71.436;2022-10-22T02:30:02;101490.0;;;12.888888888888891;72.2
64862;BME280;62652;42.274;-71.436;2022-10-22T02:31:07;101490.0;;;13.222222222222221;71.4
64862;BME280;62652;42.274;-71.436;2022-10-22T02:32:02;101490.0;;;13.38888888888889;70.6
64862;BME280;62652;42.274;-71.436;2022-10-22T02:33:05;101490.0;;;13.38888888888889;70.6
64862;BME280;62652;42.274;-71.436;2022-10-22T02:34:06;101490.0;;;13.499999999999998;69.9
64862;BME280;62652;42.274;-71.436;2022-10-22T02:35:02;101490.0;;;13.499999999999998;69.6
64862;BME280;62652;42.274;-71.436;2022-10-22T02:36:02;101490.0;;;13.499999999999998;69.7
64862;BME280;62652;42.274;-71.436;2022-10-22T02:37:02;101500.0;;;13.277777777777779;69.9
64862;BME280;62652;42.274;-71.436;2022-10-22T02:38:01;101490.0;;;13.38888888888889;69.7
64862;BME280;62652;42.274;-71.436;2022-10-22T02:39:00;101490.0;;;13.38888888888889;69.7
64862;BME280;62652;42.274;-71.436;2022-10-22T02:40:00;101500.0;;;13.38888888888889;70.1
64862;BME280;62652;42.274;-71.436;2022-10-22T02:41:01;101500.0;;;13.499999999999998;69.6
64862;BME280;62652;42.274;-71.436;2022-10-22T02:42:01;101490.0;;;13.499999999999998;69.4
64862;BME280;62652;42.274;-71.436;2022-10-22T02:43:03;101500.0;;;13.38888888888889;70.0
64862;BME280;62652;42.274;-71.436;2022-10-22T02:44:01;101490.0;;;13.499999999999998;70.0
64862;BME280;62652;42.274;-71.436;2022-10-22T02:45:00;101490.0;;;13.499999999999998;69.8
64862;BME280;62652;42.274;-71.436;2022-10-22T02:46:00;101500.0;;;13.61111111111111;69.7
64862;BME280;62652;42.274;-71.436;2022-10-22T02:47:00;101500.0;;;13.61111111111111;69.7
64862;BME280;62652;42.274;-71.436;2022-10-22T02:48:00;101500.0;;;13.61111111111111;69.7
64862;BME280;62652;42.274;-71.436;2022-10-22T02:49:00;101500.0;;;13.722222222222223;69.3
64862;BME280;62652;42.274;-71.436;2022-10-22T02:50:00;101510.0;;;13.61111111111111;69.4
64862;BME280;62652;42.274;-71.436;2022-10-22T02:51:00;101510.0;;;13.38888888888889;70.3
64862;BME280;62652;42.274;-71.436;2022-10-22T02:52:00;101510.0;;;13.38888888888889;69.8
64862;BME280;62652;42.274;-71.436;2022-10-22T02:53:00;101510.0;;;13.499999999999998;70.2
64862;BME280;62652;42.274;-71.436;2022-10-22T02:54:00;101500.0;;;13.38888888888889;70.2
64862;BME280;62652;42.274;-71.436;2022-10-22T02:55:01;101500.0;;;13.11111111111111;71.5
64862;BME280;62652;42.274;-71.436;2022-10-22T02:56:00;101510.0;;;13.222222222222221;71.1
64862;BME280;62652;42.274;-71.436;2022-10-22T02:57:00;101510.0;;;13.11111111111111;71.8
64862;BME280;62652;42.274;-71.436;2022-10-22T02:58:00;101510.0;;;13.222222222222221;71.4
64862;BME280;62652;42.274;-71.436;2022-10-22T02:59:00;101510.0;;;13.0;72.5
64862;BME280;62652;42.274;-71.436;2022-10-22T03:00:00;101510.0;;;13.11111111111111;71.8
64862;BME280;62652;42.274;-71.436;2022-10-22T03:01:01;101510.0;;;13.222222222222221;71.1
64862;BME280;62652;42.274;-71.436;2022-10-22T03:02:00;101510.0;;;13.277777777777779;70.8
64862;BME280;62652;42.274;-71.436;2022-10-22T03:03:00;101510.0;;;13.277777777777779;70.6
64862;BME280;62652;42.274;-71.436;2022-10-22T03:04:00;101510.0;;;13.277777777777779;70.1
64862;BME280;62652;42.274;-71.436;2022-10-22T03:05:00;101510.0;;;13.277777777777779;69.7
64862;BME280;62652;42.274;-71.436;2022-10-22T03:06:01;101510.0;;;13.277777777777779;70.3
64862;BME280;62652;42.274;-71.436;2022-10-22T03:07:00;101510.0;;;13.277777777777779;70.4
64862;BME280;62652;42.274;-71.436;2022-10-22T03:08:00;101510.0;;;13.277777777777779;70.4
64862;BME280;62652;42.274;-71.436;2022-10-22T03:09:00;101510.0;;;13.277777777777779;70.7
64862;BME280;62652;42.274;-71.436;2022-10-22T03:10:00;101510.0;;;13.277777777777779;70.3
64862;BME280;62652;42.274;-71.436;2022-10-22T03:11:00;101510.0;;;13.222222222222221;70.3
64862;BME280;62652;42.274;-71.436;2022-10-22T03:12:00;101510.0;;;13.222222222222221;70.4
64862;BME280;62652;42.274;-71.436;2022-10-22T03:13:00;101510.0;;;13.222222222222221;70.2
64862;BME280;62652;42.274;-71.436;2022-10-22T03:14:00;101510.0;;;13.277777777777779;70.2
64862;BME280;62652;42.274;-71.436;2022-10-22T03:15:00;101510.0;;;13.277777777777779;70.2
64862;BME280;62652;42.274;-71.436;2022-10-22T03:16:00;101520.0;;;13.222222222222221;70.2
64862;BME280;62652;42.274;-71.436;2022-10-22T03:17:00;101520.0;;;13.222222222222221;69.8
64862;BME280;62652;42.274;-71.436;2022-10-22T03:18:00;101520.0;;;13.222222222222221;70.1
64862;BME280;62652;42.274;-71.436;2022-10-22T03:19:00;101520.0;;;13.222222222222221;70.2
64862;BME280;62652;42.274;-71.436;2022-10-22T03:20:00;101510.0;;;13.277777777777779;69.8
64862;BME280;62652;42.274;-71.436;2022-10-22T03:21:05;101520.0;;;13.222222222222221;69.9
64862;BME280;62652;42.274;-71.436;2022-10-22T03:22:02;101520.0;;;13.222222222222221;70.3
64862;BME280;62652;42.274;-71.436;2022-10-22T03:23:01;101520.0;;;13.222222222222221;70.1
64862;BME280;62652;42.274;-71.436;2022-10-22T03:24:03;101520.0;;;13.11111111111111;70.1
64862;BME280;62652;42.274;-71.436;2022-10-22T03:25:04;101510.0;;;13.222222222222221;70.0
64862;BME280;62652;42.274;-71.436;2022-10-22T03:26:00;101510.0;;;13.222222222222221;70.2
64862;BME280;62652;42.274;-71.436;2022-10-22T03:27:00;101520.0;;;13.0;71.1
64862;BME280;62652;42.274;-71.436;2022-10-22T03:28:03;101520.0;;;13.0;71.3
64862;BME280;62652;42.274;-71.436;2022-10-22T03:29:00;101520.0;;;12.777777777777779;73.3
64862;BME280;62652;42.274;-71.436;2022-10-22T03:30:01;101520.0;;;12.777777777777779;73.2
64862;BME280;62652;42.274;-71.436;2022-10-22T03:31:00;101520.0;;;12.388888888888888;74.4
64862;BME280;62652;42.274;-71.436;2022-10-22T03:32:00;101520.0;;;12.388888888888888;74.8
64862;BME280;62652;42.274;-71.436;2022-10-22T03:33:00;101520.0;;;12.388888888888888;74.5
64862;BME280;62652;42.274;-71.436;2022-10-22T03:34:00;101520.0;;;12.5;74.7
64862;BME280;62652;42.274;-71.436;2022-10-22T03:35:00;101530.0;;;12.111111111111109;75.3
64862;BME280;62652;42.274;-71.436;2022-10-22T03:36:01;101520.0;;;11.61111111111111;79.6
64862;BME280;62652;42.274;-71.436;2022-10-22T03:37:00;101520.0;;;11.61111111111111;80.4
64862;BME280;62652;42.274;-71.436;2022-10-22T03:38:00;101530.0;;;11.61111111111111;80.8
64862;BME280;62652;42.274;-71.436;2022-10-22T03:39:01;101520.0;;;11.61111111111111;81.1
64862;BME280;62652;42.274;-71.436;2022-10-22T03:40:01;101520.0;;;11.777777777777779;81.0
64862;BME280;62652;42.274;-71.436;2022-10-22T03:41:00;101520.0;;;11.777777777777779;80.4
64862;BME280;62652;42.274;-71.436;2022-10-22T03:42:01;101520.0;;;12.111111111111109;79.1
64862;BME280;62652;42.274;-71.436;2022-10-22T03:43:00;101520.0;;;12.111111111111109;78.1
64862;BME280;62652;42.274;-71.436;2022-10-22T03:44:02;101520.0;;;12.111111111111109;78.5
64862;BME280;62652;42.274;-71.436;2022-10-22T03:45:00;101520.0;;;12.111111111111109;78.0
64862;BME280;62652;42.274;-71.436;2022-10-22T03:46:00;101520.0;;;12.0;77.9
64862;BME280;62652;42.274;-71.436;2022-10-22T03:47:00;101520.0;;;12.0;78.2
64862;BME280;62652;42.274;-71.436;2022-10-22T03:48:00;101510.0;;;11.88888888888889;78.6
64862;BME280;62652;42.274;-71.436;2022-10-22T03:49:00;101520.0;;;11.777777777777779;79.5
64862;BME280;62652;42.274;-71.436;2022-10-22T03:50:00;101520.0;;;11.61111111111111;80.9
64862;BME280;62652;42.274;-71.436;2022-10-22T03:51:00;101520.0;;;11.38888888888889;81.8
64862;BME280;62652;42.274;-71.436;2022-10-22T03:52:05;101520.0;;;11.38888888888889;82.7
64862;BME280;62652;42.274;-71.436;2022-10-22T03:53:00;101520.0;;;11.500000000000002;82.5
64862;BME280;62652;42.274;-71.436;2022-10-22T03:54:01;101520.0;;;11.38888888888889;82.7
64862;BME280;62652;42.274;-71.436;2022-10-22T03:55:00;101530.0;;;11.222222222222223;83.9
64862;BME280;62652;42.274;-71.436;2022-10-22T03:56:00;101530.0;;;11.38888888888889;83.2
64862;BME280;62652;42.274;-71.436;2022-10-22T03:57:00;101530.0;;;11.38888888888889;82.8
64862;BME280;62652;42.274;-71.436;2022-10-22T03:58:00;101530.0;;;11.61111111111111;unknown
64862;BME280;62652;42.274;-71.436;2022-10-22T03:59:00;101530.0;;;11.38888888888889;83.0
64862;BME280;62652;42.274;-71.436;2022-10-22T04:00:00;101530.0;;;11.11111111111111;84.0
64862;BME280;62652;42.274;-71.436;2022-10-22T04:01:04;101530.0;;;11.38888888888889;83.2
64862;BME280;62652;42.274;-71.436;2022-10-22T04:02:00;101540.0;;;11.500000000000002;82.6
64862;BME280;62652;42.274;-71.436;2022-10-22T04:03:00;101540.0;;;11.61111111111111;82.6
64862;BME280;62652;42.274;-71.436;2022-10-22T04:04:00;101530.0;;;11.722222222222221;82.2
64862;BME280;62652;42.274;-71.436;2022-10-22T04:05:00;101540.0;;;11.61111111111111;81.5
64862;BME280;62652;42.274;-71.436;2022-10-22T04:06:01;101530.0;;;11.222222222222223;83.3
64862;BME280;62652;42.274;-71.436;2022-10-22T04:07:00;101530.0;;;11.11111111111111;84.8
64862;BME280;62652;42.274;-71.436;2022-10-22T04:08:00;101530.0;;;10.999999999999998;85.1
64862;BME280;62652;42.274;-71.436;2022-10-22T04:09:00;101530.0;;;11.11111111111111;84.7
64862;BME280;62652;42.274;-71.436;2022-10-22T04:10:00;101530.0;;;10.88888888888889;85.6
64862;BME280;62652;42.274;-71.436;2022-10-22T04:11:01;101530.0;;;11.11111111111111;85.4
64862;BME280;62652;42.274;-71.436;2022-10-22T04:12:01;101530.0;;;11.38888888888889;84.1
64862;BME280;62652;42.274;-71.436;2022-10-22T04:13:00;101540.0;;;11.500000000000002;82.8
64862;BME280;62652;42.274;-71.436;2022-10-22T04:14:00;101530.0;;;11.777777777777779;81.8
64862;BME280;62652;42.274;-71.436;2022-10-22T04:15:00;101530.0;;;11.777777777777779;81.3
64862;BME280;62652;42.274;-71.436;2022-10-22T04:16:07;101540.0;;;11.38888888888889;82.4
64862;BME280;62652;42.274;-71.436;2022-10-22T04:17:00;101540.0;;;11.38888888888889;82.4
64862;BME280;62652;42.274;-71.436;2022-10-22T04:18:00;101540.0;;;11.11111111111111;84.1
64862;BME280;62652;42.274;-71.436;2022-10-22T04:19:00;101540.0;;;11.277777777777777;83.6
64862;BME280;62652;42.274;-71.436;2022-10-22T04:20:01;101540.0;;;10.999999999999998;84.2
64862;BME280;62652;42.274;-71.436;2022-10-22T04:21:00;101540.0;;;10.722222222222221;85.5
64862;BME280;62652;42.274;-71.436;2022-10-22T04:22:00;101540.0;;;10.722222222222221;86.3
64862;BME280;62652;42.274;-71.436;2022-10-22T04:23:00;101540.0;;;10.5;86.3
64862;BME280;62652;42.274;-71.436;2022-10-22T04:24:00;101540.0;;;10.111111111111112;87.9
64862;BME280;62652;42.274;-71.436;2022-10-22T04:25:01;101540.0;;;10.388888888888891;87.6
64862;BME280;62652;42.274;-71.436;2022-10-22T04:26:02;101540.0;;;10.277777777777779;88.1
64862;BME280;62652;42.274;-71.436;2022-10-22T04:27:00;101540.0;;;10.111111111111112;89.0
64862;BME280;62652;42.274;-71.436;2022-10-22T04:28:00;101540.0;;;10.222222222222221;89.7
64862;BME280;62652;42.274;-71.436;2022-10-22T04:29:00;101540.0;;;10.5;88.3
64862;BME280;62652;42.274;-71.436;2022-10-22T04:30:00;101540.0;;;10.722222222222221;86.9
64862;BME280;62652;42.274;-71.436;2022-10-22T04:31:06;101530.0;;;10.88888888888889;86.3
64862;BME280;62652;42.274;-71.436;2022-10-22T04:32:00;101540.0;;;10.999999999999998;85.1